Hallam, Nebraska
Current Conditions -  °F | °C
As of 11:55 AM on Tuesday 21 Oct 2014 (Local Time) from KBIE Reporting Station
Clear Clear  
Wind Chill: 70°   Ceiling: Unl
Heat Index: 70°   Visibility: 10mi
Dew Point: 48°   Wind: 7mph
Humidity: 45%   Direction: 170°S
Pressure: 30.1"   Gusts: NA
Location:  40.54°N, 96.79°W
Report Text: KBIE 211655Z AUTO 17006KT 10SM CLR 21/09 A3010 RMK AO2 T02100087
Loading
Personal Weather Stations






























Interactive Weather Map
Tropical Storm Tracking
New forecast layout! Learn more

10-Day Weather Forecast

Advertisements
Track Severe Weather on mobile